Time;durP1;ratioP1;P1;durP2;ratioP2;P2;SDS_P1;SDS_P2;PMS_P1;PMS_P2;Temp;Humidity;BMP_temperature;BMP_pressure;BME280_temperature;BME280_humidity;BME280_pressure;Samples;Min_cycle;Max_cycle;Signal;HPM_P1;HPM_P2
2023/01/27 00:00:30;;;;;;;;;;;16.70;53.00;;;;;;5114518;28;19908;-84
2023/01/27 00:02:56;;;;;;;;;;;16.70;53.00;;;;;;5113214;28;19916;-84
2023/01/27 00:05:21;;;;;;;;;;;16.70;53.00;;;;;;5080462;28;19908;-84
2023/01/27 00:07:51;;;;;;;;;;;16.70;53.00;;;;;;5081756;28;20277;-84
2023/01/27 00:10:20;;;;;;;;;;;16.70;53.00;;;;;;5084059;28;19971;-84
2023/01/27 00:15:33;;;;;;;;;;;16.70;52.90;;;;;;5087835;28;19962;-84
2023/01/27 00:17:58;;;;;;;;;;;16.70;52.90;;;;;;5094372;28;19924;-84
2023/01/27 00:26:13;;;;;;;;;;;16.70;52.60;;;;;;5100703;28;20209;-84
2023/01/27 00:28:41;;;;;;;;;;;16.80;52.50;;;;;;5083451;28;19961;-84
2023/01/27 00:33:53;;;;;;;;;;;16.70;52.40;;;;;;5099831;28;19919;-84
2023/01/27 00:36:18;;;;;;;;;;;16.80;52.30;;;;;;5100329;28;19916;-84
2023/01/27 00:38:47;;;;;;;;;;;16.80;52.20;;;;;;5083534;28;19969;-84
2023/01/27 00:41:22;;;;;;;;;;;16.80;52.20;;;;;;5116426;28;19908;-84
2023/01/27 00:43:51;;;;;;;;;;;16.70;52.10;;;;;;5117072;28;19931;-84
2023/01/27 00:46:18;;;;;;;;;;;16.70;52.10;;;;;;5100630;28;19954;-84
2023/01/27 00:48:47;;;;;;;;;;;16.70;52.10;;;;;;5116638;28;19973;-84
2023/01/27 00:51:16;;;;;;;;;;;16.70;52.10;;;;;;5100373;28;19912;-84
2023/01/27 00:53:41;;;;;;;;;;;16.70;52.10;;;;;;5117058;28;19908;-84
2023/01/27 00:56:08;;;;;;;;;;;16.70;52.10;;;;;;5116577;28;19934;-84
2023/01/27 00:58:34;;;;;;;;;;;16.70;52.10;;;;;;5117446;28;19908;-84
2023/01/27 01:01:02;;;;;;;;;;;16.60;52.00;;;;;;5116482;28;19919;-84
2023/01/27 01:03:31;;;;;;;;;;;16.60;52.00;;;;;;5100097;28;19919;-84
2023/01/27 01:06:02;;;;;;;;;;;16.70;52.00;;;;;;5117446;28;19908;-84
2023/01/27 01:08:29;;;;;;;;;;;16.60;51.90;;;;;;5116594;28;19957;-84
2023/01/27 01:10:54;;;;;;;;;;;16.60;51.80;;;;;;5082634;28;19922;-84
2023/01/27 01:13:20;;;;;;;;;;;16.60;51.80;;;;;;5116522;28;19908;-84
2023/01/27 01:15:46;;;;;;;;;;;16.60;51.80;;;;;;5116519;28;20238;-84
2023/01/27 01:18:15;;;;;;;;;;;16.60;51.80;;;;;;5116666;28;20180;-84
2023/01/27 01:20:42;;;;;;;;;;;16.60;51.80;;;;;;5116629;28;19934;-84
2023/01/27 01:23:08;;;;;;;;;;;16.50;51.80;;;;;;5114910;28;19908;-84
2023/01/27 01:25:36;;;;;;;;;;;16.50;51.80;;;;;;5116107;28;19947;-84
2023/01/27 01:28:02;;;;;;;;;;;16.50;51.80;;;;;;5100085;28;19908;-84
2023/01/27 01:30:28;;;;;;;;;;;16.40;51.80;;;;;;5116165;28;19920;-84
2023/01/27 01:32:54;;;;;;;;;;;16.40;51.80;;;;;;5080872;28;19972;-84
2023/01/27 01:35:36;;;;;;;;;;;16.40;51.80;;;;;;5116359;28;19915;-84
2023/01/27 01:38:05;;;;;;;;;;;16.30;51.70;;;;;;5099558;28;19908;-84
2023/01/27 01:40:32;;;;;;;;;;;16.30;51.70;;;;;;5115862;28;19990;-83
2023/01/27 01:43:01;;;;;;;;;;;16.30;51.80;;;;;;5099522;28;20031;-84
2023/01/27 01:45:38;;;;;;;;;;;16.20;51.70;;;;;;5079743;28;19911;-84
2023/01/27 01:48:15;;;;;;;;;;;16.20;51.70;;;;;;5111006;28;19947;-84
2023/01/27 01:50:43;;;;;;;;;;;16.10;51.70;;;;;;5099522;28;19924;-84
2023/01/27 01:53:10;;;;;;;;;;;16.10;51.70;;;;;;5082444;28;19951;-84
2023/01/27 01:55:36;;;;;;;;;;;16.10;51.70;;;;;;5082045;28;19965;-84
2023/01/27 01:58:03;;;;;;;;;;;16.00;51.70;;;;;;5082624;28;20292;-84
2023/01/27 02:00:29;;;;;;;;;;;16.00;51.70;;;;;;5081488;28;19947;-83
2023/01/27 02:02:54;;;;;;;;;;;15.90;51.70;;;;;;5081280;28;19908;-84
2023/01/27 02:05:33;;;;;;;;;;;15.90;51.70;;;;;;5114506;28;19919;-84
2023/01/27 02:08:25;;;;;;;;;;;15.90;51.60;;;;;;5081773;28;19994;-83
2023/01/27 02:10:53;;;;;;;;;;;15.80;51.60;;;;;;5078070;28;19955;-83
2023/01/27 02:13:28;;;;;;;;;;;15.80;51.60;;;;;;5082060;28;19915;-83
2023/01/27 02:15:54;;;;;;;;;;;15.70;51.60;;;;;;5098590;28;19908;-84
2023/01/27 02:18:20;;;;;;;;;;;15.70;51.60;;;;;;5080748;28;19909;-84
2023/01/27 02:20:50;;;;;;;;;;;15.70;51.60;;;;;;5098067;28;19909;-84
2023/01/27 02:23:35;;;;;;;;;;;15.70;51.70;;;;;;5081224;28;19951;-83
2023/01/27 02:26:09;;;;;;;;;;;15.60;51.70;;;;;;5113633;28;19921;-84
2023/01/27 02:28:35;;;;;;;;;;;15.60;51.70;;;;;;5080268;28;19915;-84
2023/01/27 02:31:01;;;;;;;;;;;15.60;51.70;;;;;;5113060;28;19912;-83
2023/01/27 02:33:27;;;;;;;;;;;15.60;51.70;;;;;;5098853;28;19908;-84
2023/01/27 02:35:52;;;;;;;;;;;15.50;51.70;;;;;;5080826;28;20349;-83
2023/01/27 02:38:18;;;;;;;;;;;15.50;51.70;;;;;;5116886;28;19918;-84
2023/01/27 02:40:45;;;;;;;;;;;15.50;51.80;;;;;;5118692;28;19953;-84
2023/01/27 02:43:16;;;;;;;;;;;15.40;51.80;;;;;;5101009;28;19909;-84
2023/01/27 02:45:44;;;;;;;;;;;15.40;51.80;;;;;;5119089;28;19916;-84
2023/01/27 02:48:09;;;;;;;;;;;15.40;51.80;;;;;;5102474;28;19912;-84
2023/01/27 02:50:35;;;;;;;;;;;15.40;51.80;;;;;;5101755;28;20352;-84
2023/01/27 02:53:07;;;;;;;;;;;15.30;51.80;;;;;;5102380;28;19908;-84
2023/01/27 02:55:33;;;;;;;;;;;15.30;51.90;;;;;;5101268;28;19908;-84
2023/01/27 02:57:58;;;;;;;;;;;15.30;51.90;;;;;;5101700;28;19941;-84
2023/01/27 03:00:24;;;;;;;;;;;15.30;52.00;;;;;;5100773;28;19923;-84
2023/01/27 03:03:01;;;;;;;;;;;15.20;52.00;;;;;;5101001;28;19918;-84
2023/01/27 03:05:27;;;;;;;;;;;15.20;52.00;;;;;;5100439;28;19908;-84
2023/01/27 03:07:52;;;;;;;;;;;15.20;52.00;;;;;;5099803;28;19973;-84
2023/01/27 03:10:18;;;;;;;;;;;15.10;52.00;;;;;;5099410;28;19916;-84
2023/01/27 03:12:44;;;;;;;;;;;15.10;52.00;;;;;;5100142;28;19973;-84
2023/01/27 03:20:38;;;;;;;;;;;15.00;52.10;;;;;;5117620;28;20296;-84
2023/01/27 03:23:04;;;;;;;;;;;15.00;52.10;;;;;;5100450;28;20274;-84
2023/01/27 03:25:29;;;;;;;;;;;15.00;52.10;;;;;;5100415;28;19915;-84
2023/01/27 03:28:01;;;;;;;;;;;15.00;52.10;;;;;;5100177;28;20193;-84
2023/01/27 03:30:27;;;;;;;;;;;14.90;52.10;;;;;;5117668;28;20243;-84
2023/01/27 03:32:53;;;;;;;;;;;14.90;52.20;;;;;;5100140;28;19907;-84
2023/01/27 03:35:18;;;;;;;;;;;14.90;52.20;;;;;;5100057;28;20327;-84
2023/01/27 03:46:19;;;;;;;;;;;14.70;52.20;;;;;;5121662;28;19973;-84
2023/01/27 03:48:49;;;;;;;;;;;14.70;52.30;;;;;;5121811;28;19916;-84
2023/01/27 03:51:15;;;;;;;;;;;14.60;52.30;;;;;;5103828;28;20006;-84
2023/01/27 03:53:41;;;;;;;;;;;14.60;52.40;;;;;;5103857;28;19907;-84
2023/01/27 03:56:06;;;;;;;;;;;14.60;52.40;;;;;;5105045;28;19908;-83
2023/01/27 03:58:34;;;;;;;;;;;14.50;52.70;;;;;;5104832;28;19908;-84
2023/01/27 04:01:00;;;;;;;;;;;14.50;52.50;;;;;;5104299;28;19911;-84
2023/01/27 04:09:05;;;;;;;;;;;14.40;52.50;;;;;;5122213;28;19968;-84
2023/01/27 04:14:15;;;;;;;;;;;14.30;52.60;;;;;;5121680;28;20010;-84
2023/01/27 04:16:42;;;;;;;;;;;14.60;52.60;;;;;;5122017;28;19947;-84
2023/01/27 04:19:11;;;;;;;;;;;15.60;51.40;;;;;;5121362;28;20344;-84
2023/01/27 04:21:37;;;;;;;;;;;16.10;50.40;;;;;;5120917;28;20344;-84
2023/01/27 04:24:16;;;;;;;;;;;16.40;49.80;;;;;;5102507;28;20002;-84
2023/01/27 04:26:43;;;;;;;;;;;16.60;49.40;;;;;;5102701;28;19918;-83
2023/01/27 04:29:10;;;;;;;;;;;16.80;49.10;;;;;;5102862;28;20101;-84
2023/01/27 04:31:35;;;;;;;;;;;17.10;48.80;;;;;;5101365;28;19976;-83
2023/01/27 04:34:01;;;;;;;;;;;17.40;48.50;;;;;;5102140;28;19908;-84
2023/01/27 04:36:27;;;;;;;;;;;17.70;48.10;;;;;;5102016;28;20517;-84
2023/01/27 04:38:54;;;;;;;;;;;17.90;47.80;;;;;;5120473;28;19912;-84
2023/01/27 04:41:19;;;;;;;;;;;18.00;47.60;;;;;;5102737;28;19911;-84
2023/01/27 04:43:45;;;;;;;;;;;18.20;47.50;;;;;;5102306;28;19907;-84
2023/01/27 04:46:11;;;;;;;;;;;18.30;47.30;;;;;;5102258;28;19918;-84
2023/01/27 04:48:36;;;;;;;;;;;18.40;47.10;;;;;;5120101;28;19908;-84
2023/01/27 04:51:02;;;;;;;;;;;18.60;46.90;;;;;;5101508;28;20027;-84
2023/01/27 04:53:30;;;;;;;;;;;18.80;46.70;;;;;;5114840;28;20058;-84
2023/01/27 04:56:03;;;;;;;;;;;18.90;46.50;;;;;;5099712;28;20006;-84
2023/01/27 04:58:28;;;;;;;;;;;19.00;46.40;;;;;;5082096;28;19915;-83
2023/01/27 05:00:54;;;;;;;;;;;19.00;46.40;;;;;;5061818;28;19909;-82
2023/01/27 05:03:20;;;;;;;;;;;19.00;46.40;;;;;;5094575;28;19943;-82
2023/01/27 05:05:45;;;;;;;;;;;19.20;46.40;;;;;;5094830;28;19973;-82
2023/01/27 05:08:17;;;;;;;;;;;19.30;46.20;;;;;;5095047;28;19909;-82
2023/01/27 05:10:46;;;;;;;;;;;19.40;46.10;;;;;;5095407;28;20022;-82
2023/01/27 05:13:11;;;;;;;;;;;19.50;46.00;;;;;;5060811;28;19969;-82
2023/01/27 05:15:37;;;;;;;;;;;19.60;45.90;;;;;;5095137;28;19916;-82
2023/01/27 05:18:05;;;;;;;;;;;19.60;45.90;;;;;;5095543;28;19983;-82
2023/01/27 05:20:30;;;;;;;;;;;19.60;45.90;;;;;;5060503;28;20257;-82
2023/01/27 05:23:33;;;;;;;;;;;19.50;45.90;;;;;;5094750;28;19999;-82
2023/01/27 05:25:44;;;;;;;;;;;19.40;45.90;;;;;;5084412;28;19912;-82
2023/01/27 05:28:11;;;;;;;;;;;19.30;46.00;;;;;;5090635;28;19958;-82
2023/01/27 05:30:43;;;;;;;;;;;19.20;46.10;;;;;;5097683;28;19916;-81
2023/01/27 05:33:09;;;;;;;;;;;19.10;46.30;;;;;;5079956;28;19916;-82
2023/01/27 05:35:35;;;;;;;;;;;19.00;46.40;;;;;;5090976;28;19933;-81
2023/01/27 05:38:04;;;;;;;;;;;18.90;46.50;;;;;;5066996;28;19912;-81
2023/01/27 05:40:29;;;;;;;;;;;18.70;46.60;;;;;;5048906;28;19916;-82
2023/01/27 05:42:55;;;;;;;;;;;18.60;46.80;;;;;;5076741;28;19919;-82
2023/01/27 05:45:23;;;;;;;;;;;18.50;46.90;;;;;;5077466;28;20061;-82
2023/01/27 05:47:50;;;;;;;;;;;18.30;47.00;;;;;;5060691;28;19908;-82
2023/01/27 05:50:19;;;;;;;;;;;18.30;47.20;;;;;;5059942;28;20029;-82
2023/01/27 05:52:47;;;;;;;;;;;18.10;47.20;;;;;;5057586;28;20316;-82
2023/01/27 05:55:13;;;;;;;;;;;18.00;47.40;;;;;;5059009;28;20412;-82
2023/01/27 05:57:39;;;;;;;;;;;17.90;47.50;;;;;;5058899;28;19909;-82
2023/01/27 06:00:17;;;;;;;;;;;17.80;47.60;;;;;;5053310;28;19913;-82
2023/01/27 06:02:52;;;;;;;;;;;17.70;47.70;;;;;;5038851;28;20385;-82
2023/01/27 06:05:24;;;;;;;;;;;17.70;47.80;;;;;;5036337;28;19932;-82
2023/01/27 06:07:55;;;;;;;;;;;17.60;47.80;;;;;;5041799;28;19913;-83
2023/01/27 06:10:21;;;;;;;;;;;17.70;47.70;;;;;;5051417;28;19913;-83
2023/01/27 06:12:47;;;;;;;;;;;17.90;47.50;;;;;;5074441;28;19915;-83
2023/01/27 06:15:12;;;;;;;;;;;18.00;47.40;;;;;;5056535;28;19919;-83
2023/01/27 06:17:38;;;;;;;;;;;18.20;47.30;;;;;;5051823;28;19920;-82
2023/01/27 06:20:08;;;;;;;;;;;18.20;47.20;;;;;;5056952;28;19912;-82
2023/01/27 06:22:37;;;;;;;;;;;18.30;47.20;;;;;;5056185;28;19908;-82
2023/01/27 06:25:12;;;;;;;;;;;18.40;47.10;;;;;;5058602;28;20554;-82
2023/01/27 06:27:37;;;;;;;;;;;18.60;46.90;;;;;;5077115;28;19939;-82
2023/01/27 06:30:10;;;;;;;;;;;18.80;46.80;;;;;;5074410;28;19997;-82
2023/01/27 06:32:36;;;;;;;;;;;18.80;46.70;;;;;;5052079;28;19916;-82
2023/01/27 06:35:04;;;;;;;;;;;18.90;46.60;;;;;;5086262;28;19920;-82
2023/01/27 06:37:30;;;;;;;;;;;18.90;46.50;;;;;;5067301;28;20007;-82
2023/01/27 06:40:15;;;;;;;;;;;18.90;46.50;;;;;;5087085;28;20006;-83
2023/01/27 06:42:41;;;;;;;;;;;19.00;46.50;;;;;;5069353;28;19951;-83
2023/01/27 06:48:20;;;;;;;;;;;19.00;46.40;;;;;;5054755;28;20148;-83
2023/01/27 06:50:49;;;;;;;;;;;19.00;46.40;;;;;;5088345;28;19912;-84
2023/01/27 06:53:14;;;;;;;;;;;19.00;46.40;;;;;;5070926;28;19908;-84
2023/01/27 06:56:14;;;;;;;;;;;19.00;46.40;;;;;;5071867;28;19993;-84
2023/01/27 06:58:43;;;;;;;;;;;19.00;46.40;;;;;;5040906;28;19969;-83
2023/01/27 07:01:29;;;;;;;;;;;19.00;46.30;;;;;;5069289;28;19951;-83
2023/01/27 07:03:55;;;;;;;;;;;19.00;46.30;;;;;;5087019;28;19908;-84
2023/01/27 07:06:27;;;;;;;;;;;19.00;46.30;;;;;;5069595;28;19908;-84
2023/01/27 07:08:53;;;;;;;;;;;18.90;46.30;;;;;;5072438;28;20182;-84
2023/01/27 07:11:19;;;;;;;;;;;18.90;46.30;;;;;;5070323;28;19912;-83
2023/01/27 07:13:44;;;;;;;;;;;18.90;46.40;;;;;;5057433;28;19923;-83
2023/01/27 07:16:14;;;;;;;;;;;18.90;46.30;;;;;;5057079;28;19919;-83
2023/01/27 07:18:39;;;;;;;;;;;18.80;46.40;;;;;;5055792;28;19912;-82
2023/01/27 07:21:05;;;;;;;;;;;18.80;46.40;;;;;;5053191;28;19919;-83
2023/01/27 07:23:34;;;;;;;;;;;18.80;46.40;;;;;;5040570;28;19974;-83
2023/01/27 07:26:01;;;;;;;;;;;18.70;46.40;;;;;;5032366;28;19922;-83
2023/01/27 07:28:26;;;;;;;;;;;18.70;46.40;;;;;;5030568;28;19981;-83
2023/01/27 07:30:52;;;;;;;;;;;18.60;46.50;;;;;;5034162;28;19913;-83
2023/01/27 07:33:17;;;;;;;;;;;18.60;46.60;;;;;;5031992;28;19974;-83
2023/01/27 07:35:47;;;;;;;;;;;18.50;46.70;;;;;;5040598;28;19921;-83
2023/01/27 07:38:21;;;;;;;;;;;18.60;46.60;;;;;;5067384;28;19909;-83
2023/01/27 07:40:50;;;;;;;;;;;18.60;46.60;;;;;;5050023;28;20178;-83
2023/01/27 07:43:19;;;;;;;;;;;18.50;46.70;;;;;;5049228;28;19916;-83
2023/01/27 07:45:49;;;;;;;;;;;18.60;46.70;;;;;;5048521;28;20068;-83
2023/01/27 07:48:15;;;;;;;;;;;18.60;46.70;;;;;;5047886;28;20303;-83
2023/01/27 07:50:43;;;;;;;;;;;18.70;46.60;;;;;;5050009;28;19912;-83
2023/01/27 07:53:09;;;;;;;;;;;18.80;46.70;;;;;;5065839;28;20175;-83
2023/01/27 07:56:11;;;;;;;;;;;18.80;46.60;;;;;;5050639;28;20275;-83
2023/01/27 07:58:40;;;;;;;;;;;18.80;46.50;;;;;;4972692;28;19921;-83
2023/01/27 08:01:24;;;;;;;;;;;18.80;46.60;;;;;;4988920;28;19910;-83
2023/01/27 08:03:49;;;;;;;;;;;18.80;46.70;;;;;;4972282;28;20129;-82
2023/01/27 08:06:18;;;;;;;;;;;18.60;46.80;;;;;;4972678;28;20394;-83
2023/01/27 08:08:47;;;;;;;;;;;18.50;46.90;;;;;;4973268;28;20499;-84
2023/01/27 08:11:13;;;;;;;;;;;18.40;47.10;;;;;;4973224;28;19924;-83
2023/01/27 08:14:04;;;;;;;;;;;18.20;47.20;;;;;;4996362;28;19913;-83
2023/01/27 08:16:50;;;;;;;;;;;18.10;47.40;;;;;;4976333;28;19910;-84
2023/01/27 08:19:15;;;;;;;;;;;17.90;47.70;;;;;;5006160;28;20343;-85
2023/01/27 08:21:41;;;;;;;;;;;17.80;47.80;;;;;;5045363;28;19909;-85
2023/01/27 08:24:09;;;;;;;;;;;18.00;47.70;;;;;;5045151;28;19909;-85
2023/01/27 08:26:34;;;;;;;;;;;18.40;47.40;;;;;;5048097;28;19912;-84
2023/01/27 08:29:03;;;;;;;;;;;18.80;46.90;;;;;;5046583;28;19913;-85
2023/01/27 08:31:29;;;;;;;;;;;18.80;46.60;;;;;;5046737;28;20283;-85
2023/01/27 08:33:54;;;;;;;;;;;18.90;46.50;;;;;;5049077;28;19915;-85
2023/01/27 08:36:20;;;;;;;;;;;19.00;46.40;;;;;;5048295;28;19924;-85
2023/01/27 08:38:48;;;;;;;;;;;19.10;46.30;;;;;;5067145;28;19909;-85
2023/01/27 08:41:15;;;;;;;;;;;19.20;46.20;;;;;;5048636;28;20068;-85
2023/01/27 08:43:41;;;;;;;;;;;19.20;46.10;;;;;;5062753;28;20195;-84
2023/01/27 08:46:07;;;;;;;;;;;19.20;46.10;;;;;;5061571;28;20366;-84
2023/01/27 08:48:33;;;;;;;;;;;19.20;46.10;;;;;;5062688;28;19993;-84
2023/01/27 08:50:59;;;;;;;;;;;19.20;46.10;;;;;;5061967;28;20178;-84
2023/01/27 08:53:25;;;;;;;;;;;19.20;46.10;;;;;;5049183;28;19909;-84
2023/01/27 08:55:53;;;;;;;;;;;19.20;46.10;;;;;;5062530;28;19908;-84
2023/01/27 08:58:19;;;;;;;;;;;19.20;46.10;;;;;;5046088;28;19912;-83
2023/01/27 09:00:45;;;;;;;;;;;19.10;46.10;;;;;;5043872;28;19909;-83
2023/01/27 09:03:13;;;;;;;;;;;19.10;46.10;;;;;;5046176;28;19924;-84
2023/01/27 09:05:39;;;;;;;;;;;19.10;46.20;;;;;;5044324;28;19920;-84
2023/01/27 09:08:06;;;;;;;;;;;19.10;46.20;;;;;;5060591;28;20206;-84
2023/01/27 09:10:31;;;;;;;;;;;19.00;46.20;;;;;;5047412;28;20201;-84
2023/01/27 09:12:57;;;;;;;;;;;19.00;46.30;;;;;;5045834;28;19908;-84
2023/01/27 09:15:22;;;;;;;;;;;18.90;46.40;;;;;;5047605;28;20320;-85
2023/01/27 09:17:49;;;;;;;;;;;18.80;46.40;;;;;;5046185;28;20141;-85
2023/01/27 09:20:14;;;;;;;;;;;18.80;46.50;;;;;;5048010;28;19916;-85
2023/01/27 09:22:40;;;;;;;;;;;18.70;46.60;;;;;;5048535;28;19908;-85
2023/01/27 09:25:12;;;;;;;;;;;18.70;46.60;;;;;;5049710;28;19909;-85
2023/01/27 09:27:39;;;;;;;;;;;18.60;46.70;;;;;;5065949;28;20000;-84
2023/01/27 09:30:05;;;;;;;;;;;18.60;46.80;;;;;;5063725;28;19935;-85
2023/01/27 09:32:33;;;;;;;;;;;18.50;46.80;;;;;;5062254;28;20313;-85
2023/01/27 09:34:58;;;;;;;;;;;18.50;46.80;;;;;;5049409;28;20194;-85
2023/01/27 09:37:24;;;;;;;;;;;18.50;46.80;;;;;;5050805;28;19951;-86
2023/01/27 09:39:55;;;;;;;;;;;18.50;46.80;;;;;;5051105;28;19912;-86
2023/01/27 09:42:42;;;;;;;;;;;18.50;46.80;;;;;;5068143;28;20206;-86
2023/01/27 09:45:26;;;;;;;;;;;18.50;46.80;;;;;;5085121;28;19916;-85
2023/01/27 09:47:52;;;;;;;;;;;18.50;46.80;;;;;;5050358;28;19909;-86
2023/01/27 09:50:29;;;;;;;;;;;18.40;46.80;;;;;;5048154;28;19919;-86
2023/01/27 09:52:57;;;;;;;;;;;18.50;46.70;;;;;;5085195;28;19913;-85
2023/01/27 09:55:28;;;;;;;;;;;18.70;46.60;;;;;;5051865;28;19916;-84
2023/01/27 09:58:00;;;;;;;;;;;18.80;46.40;;;;;;5049913;28;19977;-84
2023/01/27 10:00:33;;;;;;;;;;;18.80;46.90;;;;;;5049176;28;20294;-84
2023/01/27 10:03:08;;;;;;;;;;;18.70;46.40;;;;;;5081737;28;19940;-85
2023/01/27 10:05:39;;;;;;;;;;;18.80;46.40;;;;;;5084612;28;19965;-85
2023/01/27 10:08:19;;;;;;;;;;;18.90;46.30;;;;;;5051112;28;19959;-85
2023/01/27 10:10:51;;;;;;;;;;;18.90;46.30;;;;;;5082933;28;19923;-85
2023/01/27 10:13:20;;;;;;;;;;;18.90;46.20;;;;;;5082617;28;19909;-85
2023/01/27 10:15:57;;;;;;;;;;;19.00;46.20;;;;;;5048472;28;20041;-85
2023/01/27 10:18:22;;;;;;;;;;;19.00;46.20;;;;;;5082764;28;19916;-85
2023/01/27 10:20:51;;;;;;;;;;;18.90;46.10;;;;;;5045466;28;19981;-85
2023/01/27 10:23:35;;;;;;;;;;;19.00;46.10;;;;;;5049417;28;19919;-84
2023/01/27 10:26:14;;;;;;;;;;;19.00;46.10;;;;;;5049796;28;19919;-85
2023/01/27 10:28:46;;;;;;;;;;;19.00;46.10;;;;;;5050668;28;20023;-85
2023/01/27 10:31:25;;;;;;;;;;;19.10;46.00;;;;;;5081510;28;19962;-85
2023/01/27 10:33:52;;;;;;;;;;;19.20;46.00;;;;;;5078486;28;20352;-85
2023/01/27 10:36:18;;;;;;;;;;;19.10;45.90;;;;;;5063160;28;20173;-84
2023/01/27 10:38:43;;;;;;;;;;;19.10;46.00;;;;;;5047125;28;19908;-85
2023/01/27 10:41:31;;;;;;;;;;;19.00;46.00;;;;;;5045545;28;19970;-84
2023/01/27 10:44:05;;;;;;;;;;;18.90;46.10;;;;;;5065732;28;19908;-85
2023/01/27 10:46:37;;;;;;;;;;;18.90;46.20;;;;;;5046058;28;20066;-85
2023/01/27 10:49:08;;;;;;;;;;;18.90;46.10;;;;;;5080025;28;19908;-84
2023/01/27 10:51:36;;;;;;;;;;;19.00;46.10;;;;;;5078909;28;19977;-84
2023/01/27 10:54:05;;;;;;;;;;;18.90;46.10;;;;;;5076925;28;19916;-84
2023/01/27 10:56:52;;;;;;;;;;;18.90;46.10;;;;;;5044074;28;19908;-84
2023/01/27 10:59:25;;;;;;;;;;;18.90;46.20;;;;;;5078072;28;20181;-85
2023/01/27 11:01:53;;;;;;;;;;;18.80;46.20;;;;;;5077762;28;19920;-85
2023/01/27 11:04:38;;;;;;;;;;;18.80;46.20;;;;;;5077736;28;19908;-84
2023/01/27 11:07:04;;;;;;;;;;;18.80;46.20;;;;;;5063358;28;20079;-84
2023/01/27 11:09:34;;;;;;;;;;;18.80;46.20;;;;;;5059726;28;20254;-84
2023/01/27 11:12:04;;;;;;;;;;;18.80;46.30;;;;;;5075149;28;20193;-85
2023/01/27 11:14:33;;;;;;;;;;;18.70;46.30;;;;;;5078898;28;19915;-85
2023/01/27 11:17:06;;;;;;;;;;;18.70;46.30;;;;;;5064640;28;19995;-86
2023/01/27 11:19:55;;;;;;;;;;;18.80;46.30;;;;;;5079611;28;19908;-86
2023/01/27 11:22:22;;;;;;;;;;;18.80;46.20;;;;;;5080687;28;19913;-86
2023/01/27 11:25:18;;;;;;;;;;;18.80;46.20;;;;;;5082330;28;20259;-86
2023/01/27 11:27:43;;;;;;;;;;;18.70;46.30;;;;;;5080180;28;20262;-85
2023/01/27 11:30:15;;;;;;;;;;;18.60;46.40;;;;;;5046956;28;19990;-85
2023/01/27 11:32:47;;;;;;;;;;;18.50;46.50;;;;;;5083158;28;19948;-85
2023/01/27 11:35:14;;;;;;;;;;;18.40;46.70;;;;;;5082623;28;19908;-85
2023/01/27 11:37:44;;;;;;;;;;;18.20;46.80;;;;;;5080407;28;19982;-85
2023/01/27 11:40:16;;;;;;;;;;;18.10;47.00;;;;;;5050410;28;19919;-84
2023/01/27 11:42:41;;;;;;;;;;;17.90;47.20;;;;;;5065402;28;19977;-84
2023/01/27 11:45:13;;;;;;;;;;;17.90;47.30;;;;;;5064274;28;20145;-85
2023/01/27 11:47:42;;;;;;;;;;;18.00;47.20;;;;;;5045608;28;20205;-84
2023/01/27 11:50:13;;;;;;;;;;;18.20;47.00;;;;;;5045842;28;20385;-84
2023/01/27 11:52:38;;;;;;;;;;;18.50;46.70;;;;;;5064957;28;19912;-84
2023/01/27 11:55:06;;;;;;;;;;;18.80;46.40;;;;;;5050327;28;19915;-85
2023/01/27 11:57:40;;;;;;;;;;;19.00;46.20;;;;;;5047609;28;20052;-85
2023/01/27 12:00:10;;;;;;;;;;;19.00;46.20;;;;;;5049256;28;20323;-85
2023/01/27 12:02:39;;;;;;;;;;;19.00;46.10;;;;;;5049921;28;20162;-85
2023/01/27 12:05:13;;;;;;;;;;;19.10;46.10;;;;;;5050430;28;19912;-85
2023/01/27 12:07:39;;;;;;;;;;;19.20;46.10;;;;;;5049901;28;19908;-85
2023/01/27 12:10:20;;;;;;;;;;;19.20;45.90;;;;;;5082586;28;19966;-85
2023/01/27 12:12:46;;;;;;;;;;;19.30;45.90;;;;;;5052182;28;19912;-85
2023/01/27 12:15:17;;;;;;;;;;;19.30;45.80;;;;;;5048838;28;20038;-84
2023/01/27 12:17:48;;;;;;;;;;;19.30;45.80;;;;;;5047740;28;20062;-84
2023/01/27 12:20:30;;;;;;;;;;;19.30;45.90;;;;;;5067652;28;19908;-85
2023/01/27 12:22:58;;;;;;;;;;;19.30;46.00;;;;;;5049718;28;19985;-84
2023/01/27 12:25:28;;;;;;;;;;;19.30;46.00;;;;;;5049113;28;19920;-85
2023/01/27 12:27:56;;;;;;;;;;;19.30;46.00;;;;;;5050539;28;19923;-84
2023/01/27 12:30:23;;;;;;;;;;;19.30;46.00;;;;;;5055110;28;20320;-85
2023/01/27 12:32:49;;;;;;;;;;;19.20;46.00;;;;;;5088379;28;20293;-85
2023/01/27 12:35:18;;;;;;;;;;;19.20;46.10;;;;;;5070908;28;19912;-85
2023/01/27 12:37:44;;;;;;;;;;;19.10;46.20;;;;;;5072972;28;19915;-84
2023/01/27 12:40:24;;;;;;;;;;;19.00;46.30;;;;;;5070282;28;19935;-86
2023/01/27 12:43:04;;;;;;;;;;;18.90;46.30;;;;;;5069675;28;19920;-85
2023/01/27 12:45:33;;;;;;;;;;;18.90;46.30;;;;;;5105626;28;20351;-85
2023/01/27 12:48:11;;;;;;;;;;;18.90;46.40;;;;;;5073849;28;19922;-85
2023/01/27 12:50:41;;;;;;;;;;;18.80;46.40;;;;;;5101411;28;19912;-85
2023/01/27 12:53:10;;;;;;;;;;;18.80;46.40;;;;;;5073495;28;19919;-85
2023/01/27 12:55:38;;;;;;;;;;;18.80;46.40;;;;;;5077902;28;19908;-85
2023/01/27 12:58:04;;;;;;;;;;;18.60;46.50;;;;;;5072822;28;19966;-85
2023/01/27 13:00:31;;;;;;;;;;;18.60;47.00;;;;;;5076527;28;19915;-85
2023/01/27 13:03:10;;;;;;;;;;;18.50;46.60;;;;;;5076086;28;19908;-84
2023/01/27 13:05:40;;;;;;;;;;;18.50;46.60;;;;;;5071049;28;20258;-84
2023/01/27 13:08:11;;;;;;;;;;;18.50;46.60;;;;;;5072322;28;19912;-84
2023/01/27 13:10:38;;;;;;;;;;;18.50;46.60;;;;;;5078307;28;19923;-84
2023/01/27 13:13:04;;;;;;;;;;;18.50;46.60;;;;;;5086230;28;19919;-84
2023/01/27 13:15:33;;;;;;;;;;;18.60;46.50;;;;;;5085668;28;19908;-85
2023/01/27 13:17:59;;;;;;;;;;;18.50;46.50;;;;;;5087860;28;19914;-85
2023/01/27 13:20:28;;;;;;;;;;;18.60;46.50;;;;;;5087481;28;19909;-85
2023/01/27 13:22:57;;;;;;;;;;;18.60;46.50;;;;;;5090186;28;19923;-85
2023/01/27 13:25:30;;;;;;;;;;;18.60;46.40;;;;;;5088509;28;19912;-84
2023/01/27 13:27:58;;;;;;;;;;;18.60;46.40;;;;;;5087626;28;20177;-84
2023/01/27 13:30:36;;;;;;;;;;;18.70;46.40;;;;;;5085253;28;20123;-84
2023/01/27 13:33:21;;;;;;;;;;;18.80;46.30;;;;;;5085167;28;20190;-84
2023/01/27 13:36:08;;;;;;;;;;;18.80;46.30;;;;;;5084058;28;19908;-84
2023/01/27 13:38:46;;;;;;;;;;;18.90;46.20;;;;;;5085588;28;19916;-84
2023/01/27 13:41:44;;;;;;;;;;;18.90;46.20;;;;;;5090303;28;19920;-84
2023/01/27 13:44:30;;;;;;;;;;;18.90;46.30;;;;;;5044692;28;19916;-83
2023/01/27 13:47:01;;;;;;;;;;;18.80;46.30;;;;;;5082264;28;19908;-84
2023/01/27 13:49:47;;;;;;;;;;;18.80;46.30;;;;;;5068110;28;19908;-84
2023/01/27 13:52:12;;;;;;;;;;;18.90;46.20;;;;;;5066955;28;20017;-84
2023/01/27 13:54:38;;;;;;;;;;;18.90;46.10;;;;;;5086671;28;20489;-84
2023/01/27 13:57:19;;;;;;;;;;;19.00;46.10;;;;;;5102620;28;19962;-83
2023/01/27 14:00:02;;;;;;;;;;;19.00;46.00;;;;;;5070813;28;20217;-83
2023/01/27 14:02:46;;;;;;;;;;;19.00;46.00;;;;;;5068360;28;20224;-83
2023/01/27 14:05:12;;;;;;;;;;;19.00;45.90;;;;;;5068960;28;19912;-83
2023/01/27 14:07:53;;;;;;;;;;;19.00;46.00;;;;;;5068075;28;19939;-83
2023/01/27 14:10:22;;;;;;;;;;;19.00;46.00;;;;;;5067591;28;19908;-83
2023/01/27 14:12:48;;;;;;;;;;;19.00;46.00;;;;;;5068831;28;20263;-84
2023/01/27 14:15:26;;;;;;;;;;;19.00;45.90;;;;;;5087482;28;19919;-83
2023/01/27 14:18:00;;;;;;;;;;;19.00;45.90;;;;;;5066811;28;20064;-83
2023/01/27 14:20:30;;;;;;;;;;;19.00;46.00;;;;;;5068565;28;20202;-83
2023/01/27 14:23:04;;;;;;;;;;;19.00;46.00;;;;;;5067491;28;19912;-83
2023/01/27 14:25:53;;;;;;;;;;;18.90;46.00;;;;;;5064235;28;19908;-84
2023/01/27 14:28:39;;;;;;;;;;;18.90;46.00;;;;;;5047903;28;19920;-84
2023/01/27 14:31:26;;;;;;;;;;;19.00;46.00;;;;;;5070015;28;20196;-86
2023/01/27 14:34:07;;;;;;;;;;;18.90;46.00;;;;;;5067854;28;19919;-85
2023/01/27 14:36:41;;;;;;;;;;;18.90;46.00;;;;;;5085389;28;20273;-85
2023/01/27 14:39:12;;;;;;;;;;;18.90;45.90;;;;;;5102211;28;20459;-85
2023/01/27 14:41:41;;;;;;;;;;;18.90;45.90;;;;;;5068052;28;20062;-85
2023/01/27 14:44:21;;;;;;;;;;;18.90;46.00;;;;;;5085823;28;19972;-84
2023/01/27 14:47:10;;;;;;;;;;;18.90;45.90;;;;;;5087218;28;19908;-85
2023/01/27 14:49:35;;;;;;;;;;;18.90;45.90;;;;;;5088920;28;20394;-85
2023/01/27 14:52:07;;;;;;;;;;;18.90;45.90;;;;;;5070235;28;19919;-85
2023/01/27 14:54:32;;;;;;;;;;;18.90;45.90;;;;;;5088284;28;20254;-85
2023/01/27 14:57:01;;;;;;;;;;;18.80;45.90;;;;;;5070570;28;19908;-85
2023/01/27 14:59:29;;;;;;;;;;;18.80;45.90;;;;;;5067205;28;20149;-85
2023/01/27 15:01:59;;;;;;;;;;;18.80;46.30;;;;;;5066159;28;20011;-85
2023/01/27 15:04:33;;;;;;;;;;;18.80;45.80;;;;;;5067528;28;19918;-85
2023/01/27 15:07:08;;;;;;;;;;;18.90;46.20;;;;;;5069850;28;20896;-85
2023/01/27 15:09:44;;;;;;;;;;;18.90;45.70;;;;;;5086329;28;20020;-85